FAPM

Pietermaritzburg Airport

Pietermaritzburg, South Africa
TAF FAPM 181800Z 1819/1906 18015KT 9999 BKN015 TX25/1819Z TN17/1903Z PROB30 TEMPO 1902/1906 4000 RA BKN008 BECMG 1904/1906 22010KT
Issued Valid From Valid To
Jan-18 @ 18:00 UTC
(8 hours ago)
Jan-18 @ 19:00 UTC
(7 hours ago)
Jan-19 @ 06:00 UTC
(in 4 hours)
Jan-18 @ 19:00 to Jan-19 @ 04:00
TAF FAPM 181800Z 1819/1906 18015KT 9999 BKN015 TX25/1819Z TN17/1903Z
Wind Visibility Clouds
180° at 15 knots 10,000+ meters
  • Broken at 1,500' AGL
Temporary  (Probability 30%) Jan-19 @ 02:00 to Jan-19 @ 06:00
PROB30 TEMPO 1902/1906 4000 RA BKN008
Visibility Clouds Conditions
4,007 meters
  • Broken at 800' AGL
  • Rain
Becoming Jan-19 @ 04:00 to Jan-19 @ 06:00
BECMG 1904/1906 22010KT
Wind Visibility Clouds
220° at 10 knots 10,000+ meters
  • Broken at 1,500' AGL
TAF FAPM 181800Z 1819/1906 18015KT 9999 BKN015 TX25/1819Z TN17/1903Z PROB30 TEMPO 1902/1906 4000 RA BKN008 BECMG 1904/1906 22010KT
Issued Jan-18 @ 18:00 UTC
(8 hours ago)
Valid From Jan-18 @ 19:00 UTC
(7 hours ago)
Valid To Jan-19 @ 06:00 UTC
(in 4 hours)
Jan-18 @ 19:00 - Jan-19 @ 04:00
Wind Visibility
180° at 15 knots 10,000+ meters
Clouds
  • Broken at 1,500' AGL
Probability 30% Temporary Jan-19 @ 02:00 - Jan-19 @ 06:00
Clouds
  • Broken at 800' AGL
Conditions
  • Rain
Becoming Jan-19 @ 04:00 - Jan-19 @ 06:00
Wind Visibility
220° at 10 knots 10,000+ meters
Clouds
  • Broken at 1,500' AGL